createdAt,value
2019-02-04T00:01:03.739Z,100490.39
2019-02-04T00:03:30.693Z,100502.03
2019-02-04T00:05:57.728Z,100506.00
2019-02-04T00:08:24.967Z,100509.04
2019-02-04T00:10:51.922Z,100515.48
2019-02-04T00:13:18.908Z,100518.94
2019-02-04T00:15:45.853Z,100524.17
2019-02-04T00:18:12.724Z,100528.49
2019-02-04T00:20:39.736Z,100531.56
2019-02-04T00:23:06.689Z,100535.72
2019-02-04T00:25:34.131Z,100545.28
2019-02-04T00:28:01.436Z,100545.06
2019-02-04T00:30:28.417Z,100548.16
2019-02-04T00:32:55.619Z,100547.13
2019-02-04T00:35:22.885Z,100550.39
2019-02-04T00:37:50.138Z,100552.25
2019-02-04T00:40:17.097Z,100553.19
2019-02-04T00:42:44.633Z,100564.17
2019-02-04T00:45:11.517Z,100571.63
2019-02-04T00:47:38.393Z,100576.63
2019-02-04T00:50:05.393Z,100580.23
2019-02-04T00:52:32.388Z,100591.73
2019-02-04T00:54:59.681Z,100599.98
2019-02-04T00:57:27.026Z,100599.48
2019-02-04T00:59:54.023Z,100612.44
2019-02-04T01:02:21.338Z,100613.89
2019-02-04T01:04:48.317Z,100622.85
2019-02-04T01:07:15.634Z,100617.70
2019-02-04T01:09:42.599Z,100627.83
2019-02-04T01:12:10.029Z,100630.81
2019-02-04T01:14:36.960Z,100633.37
2019-02-04T01:17:04.237Z,100640.89
2019-02-04T01:19:31.585Z,100640.75
2019-02-04T01:21:58.850Z,100647.75
2019-02-04T01:24:26.087Z,100651.53
2019-02-04T01:26:53.237Z,100653.64
2019-02-04T01:29:20.505Z,100657.13
2019-02-04T01:31:47.756Z,100662.92
2019-02-04T01:34:15.302Z,100660.95
2019-02-04T01:36:42.174Z,100665.47
2019-02-04T01:39:09.073Z,100678.73
2019-02-04T01:41:36.358Z,100681.96
2019-02-04T01:44:03.753Z,100683.38
2019-02-04T01:46:30.700Z,100685.62
2019-02-04T01:48:58.699Z,100690.04
2019-02-04T01:51:26.056Z,100690.22
2019-02-04T01:53:53.348Z,100695.00
2019-02-04T01:56:20.358Z,100699.80
2019-02-04T01:58:47.631Z,100707.09
2019-02-04T02:01:14.521Z,100708.17
2019-02-04T02:03:41.393Z,100713.80
2019-02-04T02:06:08.411Z,100717.98
2019-02-04T02:08:35.709Z,100717.55
2019-02-04T02:11:02.902Z,100709.16
2019-02-04T02:13:29.832Z,100710.95
2019-02-04T02:15:56.722Z,100713.69
2019-02-04T02:18:23.925Z,100713.47
2019-02-04T02:20:50.935Z,100710.52
2019-02-04T02:23:17.880Z,100712.38
2019-02-04T02:25:45.158Z,100706.88
2019-02-04T02:28:12.425Z,100711.30
2019-02-04T02:30:39.309Z,100717.70
2019-02-04T02:33:06.241Z,100713.30
2019-02-04T02:35:33.200Z,100721.99
2019-02-04T02:38:00.516Z,100724.23
2019-02-04T02:40:27.458Z,100722.11
2019-02-04T02:42:54.742Z,100723.41
2019-02-04T02:45:21.669Z,100729.75
2019-02-04T02:47:48.649Z,100729.14
2019-02-04T02:50:15.591Z,100733.29
2019-02-04T02:52:42.546Z,100734.59
2019-02-04T02:55:09.497Z,100738.52
2019-02-04T02:57:36.461Z,100736.59
2019-02-04T03:00:03.740Z,100740.58
2019-02-04T03:02:33.140Z,100737.91
2019-02-04T03:05:00.310Z,100741.61
2019-02-04T03:07:27.642Z,100738.22
2019-02-04T03:09:54.795Z,100744.89
2019-02-04T03:12:21.796Z,100738.63
2019-02-04T03:14:48.772Z,100740.05
2019-02-04T03:17:15.754Z,100743.09
2019-02-04T03:19:42.901Z,100749.67
2019-02-04T03:22:10.137Z,100748.31
2019-02-04T03:24:37.100Z,100752.39
2019-02-04T03:27:04.027Z,100759.76
2019-02-04T03:29:31.290Z,100766.07
2019-02-04T03:31:58.270Z,100764.50
2019-02-04T03:34:25.192Z,100767.76
2019-02-04T03:36:52.382Z,100779.64
2019-02-04T03:39:19.696Z,100784.21
2019-02-04T03:41:46.664Z,100789.83
2019-02-04T03:44:13.647Z,100787.27
2019-02-04T03:46:41.027Z,100793.88
2019-02-04T03:49:07.910Z,100798.55
2019-02-04T03:51:34.866Z,100804.81
2019-02-04T03:54:02.120Z,100810.70
2019-02-04T03:56:29.176Z,100813.86
2019-02-04T03:58:56.121Z,100821.31
2019-02-04T04:01:23.049Z,100827.09
2019-02-04T04:03:50.002Z,100823.06
2019-02-04T04:06:17.434Z,100826.82
2019-02-04T04:08:44.425Z,100832.85
2019-02-04T04:11:11.409Z,100832.50
2019-02-04T04:13:38.345Z,100839.19
2019-02-04T04:16:05.314Z,100834.12
2019-02-04T04:18:32.558Z,100840.94
2019-02-04T04:21:00.794Z,100842.03
2019-02-04T04:23:27.755Z,100847.48
2019-02-04T04:25:55.037Z,100848.35
2019-02-04T04:28:22.497Z,100851.95
2019-02-04T04:30:49.432Z,100851.30
2019-02-04T04:33:16.387Z,100856.68
2019-02-04T04:35:43.353Z,100859.19
2019-02-04T04:38:10.786Z,100864.72
2019-02-04T04:40:37.776Z,100865.09
2019-02-04T04:43:05.093Z,100872.59
2019-02-04T04:45:32.341Z,100875.99
2019-02-04T04:47:59.626Z,100879.59
2019-02-04T04:50:26.604Z,100880.10
2019-02-04T04:52:53.564Z,100873.92
2019-02-04T04:55:20.818Z,100895.21
2019-02-04T04:57:47.722Z,100899.62
2019-02-04T05:00:15.034Z,100892.89
2019-02-04T05:02:42.667Z,100891.69
2019-02-04T05:05:09.692Z,100891.14
2019-02-04T05:07:36.679Z,100901.92
2019-02-04T05:10:03.610Z,100898.11
2019-02-04T05:12:30.586Z,100902.22
2019-02-04T05:14:57.830Z,100901.45
2019-02-04T05:17:24.796Z,100898.92
2019-02-04T05:19:52.461Z,100898.23
2019-02-04T05:22:20.053Z,100906.17
2019-02-04T05:24:46.993Z,100914.70
2019-02-04T05:27:14.301Z,100914.61
2019-02-04T05:29:41.551Z,100915.70
2019-02-04T05:32:08.540Z,100913.22
2019-02-04T05:34:35.582Z,100923.92
2019-02-04T05:37:03.510Z,100916.80
2019-02-04T05:39:30.411Z,100916.09
2019-02-04T05:41:57.372Z,100914.92
2019-02-04T05:44:24.381Z,100921.53
2019-02-04T05:46:52.155Z,100921.87
2019-02-04T05:49:19.181Z,100921.33
2019-02-04T05:51:46.074Z,100929.45
2019-02-04T05:54:13.360Z,100926.31
2019-02-04T05:56:40.420Z,100926.13
2019-02-04T05:59:07.840Z,100928.97
2019-02-04T06:01:34.803Z,100930.23
2019-02-04T06:04:01.751Z,100934.47
2019-02-04T06:06:28.698Z,100946.37
2019-02-04T06:08:55.972Z,100943.83
2019-02-04T06:11:23.232Z,100946.53
2019-02-04T06:13:50.208Z,100940.69
2019-02-04T06:16:17.523Z,100941.70
2019-02-04T06:18:44.806Z,100943.21
2019-02-04T06:21:11.682Z,100943.98
2019-02-04T06:23:38.793Z,100942.29
2019-02-04T06:26:05.752Z,100944.19
2019-02-04T06:28:33.086Z,100958.73
2019-02-04T06:31:00.420Z,100960.22
2019-02-04T06:33:27.841Z,100959.13
2019-02-04T06:35:54.788Z,100968.07
2019-02-04T06:38:21.744Z,100965.27
2019-02-04T06:40:48.725Z,100965.36
2019-02-04T06:43:15.968Z,100972.77
2019-02-04T06:45:45.823Z,100976.62
2019-02-04T06:48:11.480Z,100982.11
2019-02-04T06:50:38.457Z,100988.02
2019-02-04T06:53:05.398Z,100981.09
2019-02-04T06:55:32.341Z,100989.90
2019-02-04T06:57:59.481Z,100990.02
2019-02-04T07:00:26.431Z,100992.58
2019-02-04T07:02:53.329Z,100993.11
2019-02-04T07:05:23.328Z,100994.82
2019-02-04T07:07:50.757Z,100996.11
2019-02-04T07:10:18.114Z,101002.26
2019-02-04T07:12:45.077Z,101005.72
2019-02-04T07:15:12.059Z,101011.06
2019-02-04T07:17:39.020Z,101015.33
2019-02-04T07:20:06.007Z,101022.64
2019-02-04T07:22:33.440Z,101028.10
2019-02-04T07:25:00.402Z,101028.00
2019-02-04T07:27:29.190Z,101031.18
2019-02-04T07:29:56.166Z,101031.03
2019-02-04T07:32:23.112Z,101042.66
2019-02-04T07:34:50.059Z,101036.97
2019-02-04T07:37:17.363Z,101037.34
2019-02-04T07:39:45.031Z,101039.42
2019-02-04T07:42:11.998Z,101034.73
2019-02-04T07:44:38.994Z,101039.64
2019-02-04T07:47:06.370Z,101046.89
2019-02-04T07:49:35.176Z,101050.23
2019-02-04T07:52:01.928Z,101051.12
2019-02-04T07:54:29.284Z,101055.70
2019-02-04T07:56:56.652Z,101043.23
2019-02-04T07:59:26.952Z,101044.70
2019-02-04T08:01:58.103Z,101048.60
2019-02-04T08:04:25.354Z,101052.28
2019-02-04T08:06:52.304Z,101053.19
2019-02-04T08:09:19.356Z,101056.83
2019-02-04T08:11:46.359Z,101054.02
2019-02-04T08:14:13.293Z,101057.69
2019-02-04T08:16:40.201Z,101053.05
2019-02-04T08:19:07.069Z,101050.55
2019-02-04T08:21:33.980Z,101058.03
2019-02-04T08:24:01.219Z,101059.69
2019-02-04T08:26:28.686Z,101066.02
2019-02-04T08:28:56.023Z,101061.88
2019-02-04T08:31:23.605Z,101065.00
2019-02-04T08:33:50.847Z,101066.80
2019-02-04T08:36:17.811Z,101068.45
2019-02-04T08:38:44.766Z,101069.66
2019-02-04T08:41:12.078Z,101073.90
2019-02-04T08:43:39.028Z,101082.09
2019-02-04T08:46:06.299Z,101086.30
2019-02-04T08:48:33.542Z,101088.08
2019-02-04T08:51:00.494Z,101090.25
2019-02-04T08:53:27.441Z,101097.28
2019-02-04T08:55:54.424Z,101096.55
2019-02-04T08:58:21.375Z,101088.91
2019-02-04T09:00:48.757Z,101096.64
2019-02-04T09:03:15.721Z,101092.32
2019-02-04T09:05:42.650Z,101101.73
2019-02-04T09:08:09.922Z,101103.19
2019-02-04T09:10:37.191Z,101099.92
2019-02-04T09:13:04.440Z,101102.52
2019-02-04T09:15:31.442Z,101110.32
2019-02-04T09:17:58.749Z,101113.70
2019-02-04T09:20:27.106Z,101107.83
2019-02-04T09:22:54.362Z,101115.02
2019-02-04T09:25:21.343Z,101110.86
2019-02-04T09:27:48.980Z,101113.59
2019-02-04T09:30:15.927Z,101110.61
2019-02-04T09:32:43.211Z,101111.13
2019-02-04T09:35:10.733Z,101113.13
2019-02-04T09:37:38.862Z,101112.17
2019-02-04T09:40:05.820Z,101110.83
2019-02-04T09:42:32.800Z,101118.72
2019-02-04T09:44:59.948Z,101128.02
2019-02-04T09:47:26.913Z,101125.30
2019-02-04T09:49:54.248Z,101123.73
2019-02-04T09:52:21.244Z,101120.97
2019-02-04T09:54:48.289Z,101128.11
2019-02-04T09:57:15.598Z,101124.12
2019-02-04T09:59:45.572Z,101134.19
2019-02-04T10:02:14.914Z,101127.50
2019-02-04T10:04:41.869Z,101124.20
2019-02-04T10:07:09.318Z,101123.00
2019-02-04T10:09:36.263Z,101128.44
2019-02-04T10:12:03.523Z,101135.06
2019-02-04T10:14:30.551Z,101135.44
2019-02-04T10:16:57.826Z,101128.66
2019-02-04T10:19:25.208Z,101139.56
2019-02-04T10:21:54.051Z,101138.09
2019-02-04T10:24:21.609Z,101145.16
2019-02-04T10:26:50.464Z,101144.98
2019-02-04T10:29:17.634Z,101138.11
2019-02-04T10:31:44.934Z,101134.83
2019-02-04T10:34:14.169Z,101136.44
2019-02-04T10:36:41.475Z,101132.05
2019-02-04T10:39:08.448Z,101129.69
2019-02-04T10:41:36.216Z,101131.33
2019-02-04T10:44:03.216Z,101122.86
2019-02-04T10:46:30.603Z,101127.39
2019-02-04T10:48:57.550Z,101122.79
2019-02-04T10:51:24.511Z,101124.20
2019-02-04T10:53:51.760Z,101123.80
2019-02-04T10:56:18.854Z,101122.06
2019-02-04T10:58:46.182Z,101122.06
2019-02-04T11:01:13.170Z,101124.14
2019-02-04T11:03:41.078Z,101124.86
2019-02-04T11:06:08.162Z,101127.50
2019-02-04T11:08:35.587Z,101126.84
2019-02-04T11:11:02.981Z,101125.94
2019-02-04T11:13:29.921Z,101129.42
2019-02-04T11:15:57.282Z,101126.56
2019-02-04T11:18:24.203Z,101120.30
2019-02-04T11:20:58.244Z,101128.75
2019-02-04T11:23:19.801Z,101129.39
2019-02-04T11:25:47.163Z,101134.43
2019-02-04T11:28:14.576Z,101141.52
2019-02-04T11:30:41.770Z,101134.84
2019-02-04T11:33:10.066Z,101131.00
2019-02-04T11:35:37.063Z,101124.27
2019-02-04T11:38:04.356Z,101129.59
2019-02-04T11:40:31.700Z,101126.91
2019-02-04T11:42:58.698Z,101126.45
2019-02-04T11:45:26.451Z,101121.48
2019-02-04T11:47:53.388Z,101128.06
2019-02-04T11:50:20.353Z,101139.34
2019-02-04T11:52:47.321Z,101136.02
2019-02-04T11:55:14.283Z,101145.23
2019-02-04T11:57:41.650Z,101140.47
2019-02-04T12:00:08.720Z,101143.15
2019-02-04T12:02:36.376Z,101139.03
2019-02-04T12:05:03.744Z,101150.25
2019-02-04T12:07:30.658Z,101146.14
2019-02-04T12:09:57.999Z,101149.23
2019-02-04T12:12:25.010Z,101145.95
2019-02-04T12:14:51.897Z,101142.89
2019-02-04T12:17:18.793Z,101136.78
2019-02-04T12:19:46.186Z,101135.18
2019-02-04T12:22:13.325Z,101134.36
2019-02-04T12:24:40.229Z,101134.15
2019-02-04T12:27:07.553Z,101137.40
2019-02-04T12:29:35.924Z,101132.91
2019-02-04T12:32:03.218Z,101128.04
2019-02-04T12:34:30.434Z,101134.10
2019-02-04T12:36:57.679Z,101130.12
2019-02-04T12:39:24.829Z,101139.58
2019-02-04T12:41:52.126Z,101138.84
2019-02-04T12:44:19.374Z,101133.97
2019-02-04T12:46:46.590Z,101137.22
2019-02-04T12:49:13.737Z,101134.68
2019-02-04T12:51:40.683Z,101130.92
2019-02-04T12:54:07.633Z,101125.11
2019-02-04T12:56:35.226Z,101128.34
2019-02-04T12:59:02.222Z,101123.38
2019-02-04T13:01:29.168Z,101115.56
2019-02-04T13:03:56.542Z,101110.48
2019-02-04T13:06:23.513Z,101109.17
2019-02-04T13:08:50.645Z,101111.64
2019-02-04T13:11:17.560Z,101113.52
2019-02-04T13:13:44.536Z,101114.91
2019-02-04T13:16:11.464Z,101111.39
2019-02-04T13:18:38.338Z,101109.83
2019-02-04T13:21:05.319Z,101105.74
2019-02-04T13:23:32.273Z,101107.92
2019-02-04T13:25:59.561Z,101099.19
2019-02-04T13:28:26.453Z,101099.92
2019-02-04T13:30:53.757Z,101101.19
2019-02-04T13:33:21.343Z,101092.55
2019-02-04T13:35:48.333Z,101100.36
2019-02-04T13:38:15.633Z,101102.18
2019-02-04T13:40:44.468Z,101100.09
2019-02-04T13:43:11.885Z,101095.49
2019-02-04T13:45:38.864Z,101093.94
2019-02-04T13:48:08.408Z,101092.19
2019-02-04T13:50:34.793Z,101089.59
2019-02-04T13:53:01.760Z,101105.53
2019-02-04T13:55:29.066Z,101098.11
2019-02-04T13:57:56.039Z,101095.96
2019-02-04T14:00:23.272Z,101091.93
2019-02-04T14:02:58.809Z,101088.23
2019-02-04T14:05:19.898Z,101084.34
2019-02-04T14:07:46.934Z,101084.72
2019-02-04T14:10:13.857Z,101084.08
2019-02-04T14:12:40.804Z,101087.20
2019-02-04T14:15:07.791Z,101083.46
2019-02-04T14:17:34.793Z,101079.86
2019-02-04T14:20:01.826Z,101085.94
2019-02-04T14:22:29.946Z,101091.36
2019-02-04T14:24:56.922Z,101084.42
2019-02-04T14:27:23.900Z,101089.52
2019-02-04T14:29:50.864Z,101076.78
2019-02-04T14:32:18.276Z,101074.17
2019-02-04T14:34:45.511Z,101068.09
2019-02-04T14:37:12.394Z,101074.25
2019-02-04T14:39:39.767Z,101067.70
2019-02-04T14:42:06.697Z,101059.04
2019-02-04T14:44:33.670Z,101058.73
2019-02-04T14:47:00.827Z,101056.45
2019-02-04T14:49:27.844Z,101054.19
2019-02-04T14:51:54.749Z,101044.66
2019-02-04T14:54:21.994Z,101042.23
2019-02-04T14:56:49.457Z,101037.20
2019-02-04T14:59:16.437Z,101035.59
2019-02-04T15:01:43.773Z,101031.97
2019-02-04T15:04:12.134Z,101037.58
2019-02-04T15:06:39.121Z,101036.86
2019-02-04T15:09:06.441Z,101041.64
2019-02-04T15:11:34.406Z,101040.92
2019-02-04T15:14:01.302Z,101039.23
2019-02-04T15:16:28.255Z,101038.98
2019-02-04T15:18:55.570Z,101032.36
2019-02-04T15:21:22.504Z,101037.58
2019-02-04T15:23:49.861Z,101033.77
2019-02-04T15:26:16.824Z,101037.95
2019-02-04T15:28:45.463Z,101031.72
2019-02-04T15:31:12.467Z,101036.56
2019-02-04T15:33:39.800Z,101040.61
2019-02-04T15:36:07.034Z,101038.60
2019-02-04T15:38:34.186Z,101035.88
2019-02-04T15:41:01.080Z,101035.94
2019-02-04T15:43:28.125Z,101035.52
2019-02-04T15:45:55.084Z,101029.50
2019-02-04T15:48:22.041Z,101032.34
2019-02-04T15:50:49.379Z,101035.99
2019-02-04T15:53:16.263Z,101037.08
2019-02-04T15:55:43.245Z,101037.58
2019-02-04T15:58:10.318Z,101038.72
2019-02-04T16:00:37.335Z,101044.16
2019-02-04T16:03:04.981Z,101042.70
2019-02-04T16:05:31.926Z,101042.27
2019-02-04T16:07:59.184Z,101047.49
2019-02-04T16:10:26.465Z,101040.78
2019-02-04T16:12:53.397Z,101041.18
2019-02-04T16:15:20.353Z,101043.16
2019-02-04T16:17:47.355Z,101043.33
2019-02-04T16:20:14.846Z,101040.92
2019-02-04T16:22:41.843Z,101044.81
2019-02-04T16:25:09.051Z,101040.44
2019-02-04T16:27:36.415Z,101043.42
2019-02-04T16:30:03.731Z,101044.39
2019-02-04T16:32:31.054Z,101044.49
2019-02-04T16:34:58.244Z,101045.12
2019-02-04T16:37:25.230Z,101049.89
2019-02-04T16:39:52.749Z,101049.53
2019-02-04T16:42:19.629Z,101048.08
2019-02-04T16:44:49.656Z,101050.35
2019-02-04T16:47:16.958Z,101045.30
2019-02-04T16:49:43.933Z,101048.33
2019-02-04T16:52:10.985Z,101043.86
2019-02-04T16:54:37.957Z,101052.81
2019-02-04T16:57:04.891Z,101050.40
2019-02-04T16:59:32.252Z,101049.59
2019-02-04T17:01:59.580Z,101051.33
2019-02-04T17:04:26.830Z,101053.74
2019-02-04T17:06:54.118Z,101049.93
2019-02-04T17:09:21.025Z,101050.31
2019-02-04T17:11:48.262Z,101049.52
2019-02-04T17:14:15.616Z,101048.34
2019-02-04T17:16:42.608Z,101051.52
2019-02-04T17:19:09.577Z,101048.47
2019-02-04T17:21:36.553Z,101050.77
2019-02-04T17:24:03.497Z,101051.78
2019-02-04T17:26:30.869Z,101053.19
2019-02-04T17:28:58.007Z,101055.59
2019-02-04T17:31:25.708Z,101054.67
2019-02-04T17:33:53.756Z,101061.03
2019-02-04T17:36:20.704Z,101050.53
2019-02-04T17:38:48.021Z,101049.59
2019-02-04T17:41:15.012Z,101046.70
2019-02-04T17:43:42.484Z,101038.27
2019-02-04T17:46:09.423Z,101042.18
2019-02-04T17:48:36.642Z,101041.38
2019-02-04T17:51:04.982Z,101035.56
2019-02-04T17:53:34.207Z,101041.82
2019-02-04T17:56:00.545Z,101035.62
2019-02-04T17:58:27.434Z,101030.80
2019-02-04T18:00:54.389Z,101032.06
2019-02-04T18:03:21.443Z,101030.03
2019-02-04T18:05:57.449Z,101030.39
2019-02-04T18:08:33.227Z,101029.10
2019-02-04T18:11:00.523Z,101032.41
2019-02-04T18:13:27.487Z,101028.25
2019-02-04T18:15:54.446Z,101033.39
2019-02-04T18:18:22.767Z,101036.83
2019-02-04T18:20:50.138Z,101031.66
2019-02-04T18:23:18.265Z,101033.08
2019-02-04T18:25:45.237Z,101033.77
2019-02-04T18:28:12.509Z,101041.28
2019-02-04T18:30:39.794Z,101034.70
2019-02-04T18:33:07.150Z,101039.09
2019-02-04T18:35:38.878Z,101034.55
2019-02-04T18:38:06.069Z,101025.17
2019-02-04T18:40:36.219Z,101036.02
2019-02-04T18:43:04.361Z,101038.71
2019-02-04T18:45:31.339Z,101035.63
2019-02-04T18:47:58.400Z,101033.56
2019-02-04T18:50:25.884Z,101038.74
2019-02-04T18:52:53.145Z,101039.66
2019-02-04T18:55:20.071Z,101040.47
2019-02-04T18:57:47.087Z,101033.42
2019-02-04T19:00:14.414Z,101046.86
2019-02-04T19:02:41.432Z,101043.19
2019-02-04T19:05:08.401Z,101038.34
2019-02-04T19:07:35.754Z,101041.94
2019-02-04T19:10:02.796Z,101031.75
2019-02-04T19:12:30.287Z,101034.38
2019-02-04T19:14:57.562Z,101033.91
2019-02-04T19:17:24.910Z,101036.72
2019-02-04T19:19:55.517Z,101031.59
2019-02-04T19:22:22.482Z,101029.26
2019-02-04T19:24:49.922Z,101031.52
2019-02-04T19:27:17.099Z,101032.77
2019-02-04T19:29:44.550Z,101030.94
2019-02-04T19:32:18.223Z,101031.72
2019-02-04T19:34:45.245Z,101033.00
2019-02-04T19:37:12.566Z,101037.49
2019-02-04T19:39:39.916Z,101034.97
2019-02-04T19:42:07.273Z,101029.71
2019-02-04T19:44:34.751Z,101030.38
2019-02-04T19:47:01.723Z,101029.98
2019-02-04T19:49:28.675Z,101027.13
2019-02-04T19:51:56.162Z,101040.94
2019-02-04T19:54:23.206Z,101032.55
2019-02-04T19:56:50.282Z,101032.31
2019-02-04T19:59:21.255Z,101027.41
2019-02-04T20:01:48.561Z,101034.17
2019-02-04T20:04:15.618Z,101026.91
2019-02-04T20:06:42.577Z,101032.25
2019-02-04T20:09:11.049Z,101027.33
2019-02-04T20:11:38.602Z,101027.09
2019-02-04T20:14:05.975Z,101027.53
2019-02-04T20:16:33.349Z,101020.30
2019-02-04T20:19:00.855Z,101020.22
2019-02-04T20:21:28.887Z,101016.78
2019-02-04T20:23:55.860Z,101014.13
2019-02-04T20:26:23.222Z,101010.37
2019-02-04T20:28:50.224Z,101001.50
2019-02-04T20:31:17.204Z,101009.21
2019-02-04T20:33:44.719Z,101001.50
2019-02-04T20:36:11.700Z,101006.79
2019-02-04T20:38:40.574Z,101005.23
2019-02-04T20:41:07.541Z,100996.72
2019-02-04T20:43:34.826Z,100998.50
2019-02-04T20:46:02.209Z,101002.80
2019-02-04T20:48:29.156Z,100996.81
2019-02-04T20:50:56.478Z,101000.97
2019-02-04T20:53:24.996Z,101004.38
2019-02-04T20:55:51.942Z,101000.54
2019-02-04T20:58:19.008Z,101001.77
2019-02-04T21:00:46.296Z,100997.69
2019-02-04T21:03:14.429Z,101004.81
2019-02-04T21:05:41.449Z,101002.53
2019-02-04T21:08:08.425Z,101004.52
2019-02-04T21:10:35.875Z,101014.27
2019-02-04T21:13:03.227Z,101019.84
2019-02-04T21:15:30.204Z,101022.42
2019-02-04T21:17:57.508Z,101020.10
2019-02-04T21:20:25.840Z,101014.98
2019-02-04T21:22:52.801Z,101015.36
2019-02-04T21:25:19.765Z,101012.02
2019-02-04T21:27:47.624Z,101013.89
2019-02-04T21:30:14.817Z,101011.59
2019-02-04T21:32:43.486Z,101015.06
2019-02-04T21:35:10.459Z,101008.64
2019-02-04T21:37:37.671Z,101009.25
2019-02-04T21:40:05.438Z,101005.55
2019-02-04T21:42:32.447Z,101001.92
2019-02-04T21:45:01.049Z,100992.70
2019-02-04T21:47:28.385Z,100995.91
2019-02-04T21:49:55.773Z,100996.95
2019-02-04T21:52:23.118Z,100988.63
2019-02-04T21:54:50.019Z,100989.86
2019-02-04T21:57:16.975Z,100986.75
2019-02-04T21:59:44.010Z,100978.95
2019-02-04T22:02:10.964Z,100981.41
2019-02-04T22:04:38.455Z,100976.45
2019-02-04T22:07:05.706Z,100970.31
2019-02-04T22:09:33.738Z,100980.45
2019-02-04T22:12:00.700Z,100983.38
2019-02-04T22:14:27.986Z,100984.52
2019-02-04T22:16:55.241Z,100983.11
2019-02-04T22:19:22.168Z,100985.84
2019-02-04T22:21:49.130Z,100984.89
2019-02-04T22:24:16.290Z,100977.54
2019-02-04T22:26:43.265Z,100978.00
2019-02-04T22:29:10.612Z,100973.84
2019-02-04T22:31:37.937Z,100968.34
2019-02-04T22:34:05.092Z,100971.60
2019-02-04T22:36:32.341Z,100966.83
2019-02-04T22:38:59.601Z,100967.27
2019-02-04T22:41:28.294Z,100964.20
2019-02-04T22:43:56.699Z,100971.23
2019-02-04T22:46:23.670Z,100970.72
2019-02-04T22:48:50.965Z,100970.94
2019-02-04T22:51:18.230Z,100963.44
2019-02-04T22:53:45.173Z,100962.86
2019-02-04T22:56:12.079Z,100965.27
2019-02-04T22:58:39.669Z,100962.66
2019-02-04T23:01:06.625Z,100968.43
2019-02-04T23:03:34.176Z,100965.45
2019-02-04T23:06:02.426Z,100973.42
2019-02-04T23:08:29.361Z,100966.29
2019-02-04T23:10:56.318Z,100970.27
2019-02-04T23:13:23.196Z,100967.48
2019-02-04T23:15:53.888Z,100963.61
2019-02-04T23:18:19.433Z,100968.66
2019-02-04T23:20:46.692Z,100962.35
2019-02-04T23:23:13.626Z,100961.23
2019-02-04T23:25:43.346Z,100964.84
2019-02-04T23:28:09.279Z,100954.72
2019-02-04T23:30:36.265Z,100948.13
2019-02-04T23:33:03.535Z,100948.33
2019-02-04T23:35:30.492Z,100951.13
2019-02-04T23:37:57.447Z,100940.66
2019-02-04T23:40:24.312Z,100935.93
2019-02-04T23:42:51.242Z,100933.59
2019-02-04T23:45:18.503Z,100929.13
2019-02-04T23:47:45.457Z,100933.13
2019-02-04T23:50:13.867Z,100933.10
2019-02-04T23:52:40.844Z,100926.33
2019-02-04T23:55:07.824Z,100929.13
2019-02-04T23:57:35.211Z,100929.44
